Time;durP1;ratioP1;P1;durP2;ratioP2;P2;SDS_P1;SDS_P2;PMS_P1;PMS_P2;Temp;Humidity;BMP_temperature;BMP_pressure;BME280_temperature;BME280_humidity;BME280_pressure;Samples;Min_cycle;Max_cycle;Signal;HPM_P1;HPM_P2
2023/05/22 00:01:18;;;;;;;;;;;;;;;;;;5024405;28;19997;-71
2023/05/22 00:03:44;;;;;;;;;;;;;;;;;;5025871;28;19924;-71
2023/05/22 00:06:10;;;;;;;;;;;;;;;;;;5028359;28;19913;-71
2023/05/22 00:08:36;;;;;;;;;;;;;;;;;;5009408;28;20382;-70
2023/05/22 00:11:02;;;;;;;;;;;;;;;;;;5031193;28;19921;-71
2023/05/22 00:13:29;;;;;;;;;;;;;;;;;;5026364;28;19929;-71
2023/05/22 00:15:55;;;;;;;;;;;;;;;;;;5029020;28;19936;-70
2023/05/22 00:18:21;;;;;;;;;;;;;;;;;;5028106;28;19913;-71
2023/05/22 00:20:47;;;;;;;;;;;;;;;;;;5031444;28;20067;-71
2023/05/22 00:23:13;;;;;;;;;;;;;;;;;;5011505;28;19917;-71
2023/05/22 00:25:39;;;;;;;;;;;;;;;;;;5027166;28;19928;-71
2023/05/22 00:28:05;;;;;;;;;;;;;;;;;;5030010;28;19917;-71
2023/05/22 00:30:32;;;;;;;;;;;;;;;;;;5029656;28;19919;-71
2023/05/22 00:32:58;;;;;;;;;;;;;;;;;;5010307;28;19913;-71
2023/05/22 00:35:24;;;;;;;;;;;;;;;;;;5029302;28;19967;-72
2023/05/22 00:37:50;;;;;;;;;;;;;;;;;;5025260;28;19921;-71
2023/05/22 00:40:16;;;;;;;;;;;;;;;;;;5008175;28;19921;-71
2023/05/22 00:42:42;;;;;;;;;;;;;;;;;;5009396;28;19921;-71
2023/05/22 00:45:08;;;;;;;;;;;;;;;;;;5013138;28;19921;-71
2023/05/22 00:47:34;;;;;;;;;;;;;;;;;;5014370;28;19927;-71
2023/05/22 00:50:00;;;;;;;;;;;;;;;;;;5011864;28;19971;-71
2023/05/22 00:52:26;;;;;;;;;;;;;;;;;;5009758;28;20157;-72
2023/05/22 00:54:52;;;;;;;;;;;;;;;;;;5027632;28;19927;-72
2023/05/22 00:57:18;;;;;;;;;;;;;;;;;;5030564;28;19917;-74
2023/05/22 00:59:45;;;;;;;;;;;;;;;;;;5006892;28;19917;-72
2023/05/22 01:02:12;;;;;;;;;;;;;;;;;;5007616;28;19921;-72
2023/05/22 01:04:38;;;;;;;;;;;;;;;;;;5022754;28;19921;-72
2023/05/22 01:07:04;;;;;;;;;;;;;;;;;;5008693;28;19999;-72
2023/05/22 01:09:30;;;;;;;;;;;;;;;;;;5029698;28;19921;-72
2023/05/22 01:11:56;;;;;;;;;;;;;;;;;;5011831;28;19956;-72
2023/05/22 01:14:22;;;;;;;;;;;;;;;;;;5026988;28;19948;-73
2023/05/22 01:16:48;;;;;;;;;;;;;;;;;;5026656;28;19920;-72
2023/05/22 01:19:14;;;;;;;;;;;;;;;;;;5026916;28;19925;-73
2023/05/22 01:21:44;;;;;;;;;;;;;;;;;;5009016;28;19984;-73
2023/05/22 01:24:12;;;;;;;;;;;;;;;;;;5010792;28;20379;-73
2023/05/22 01:26:38;;;;;;;;;;;;;;;;;;5010058;28;19940;-73
2023/05/22 01:29:04;;;;;;;;;;;;;;;;;;5027016;28;19921;-73
2023/05/22 01:31:30;;;;;;;;;;;;;;;;;;5027824;28;19932;-73
2023/05/22 01:33:56;;;;;;;;;;;;;;;;;;5025946;28;19927;-73
2023/05/22 01:36:22;;;;;;;;;;;;;;;;;;5026864;28;20291;-74
2023/05/22 01:38:48;;;;;;;;;;;;;;;;;;5010950;28;19953;-73
2023/05/22 01:41:14;;;;;;;;;;;;;;;;;;5027353;28;19914;-73
2023/05/22 01:43:40;;;;;;;;;;;;;;;;;;5029297;28;20302;-72
2023/05/22 01:46:06;;;;;;;;;;;;;;;;;;5027319;28;19917;-73
2023/05/22 01:48:32;;;;;;;;;;;;;;;;;;5024642;28;20012;-73
2023/05/22 01:50:58;;;;;;;;;;;;;;;;;;5008214;28;19921;-73
2023/05/22 01:53:24;;;;;;;;;;;;;;;;;;5028701;28;19913;-73
2023/05/22 01:55:54;;;;;;;;;;;;;;;;;;5027409;28;19948;-72
2023/05/22 01:58:20;;;;;;;;;;;;;;;;;;5006639;28;19913;-73
2023/05/22 02:00:46;;;;;;;;;;;;;;;;;;5010639;28;19913;-73
2023/05/22 02:03:12;;;;;;;;;;;;;;;;;;5026694;28;20397;-74
2023/05/22 02:05:38;;;;;;;;;;;;;;;;;;5023844;28;19928;-73
2023/05/22 02:08:04;;;;;;;;;;;;;;;;;;5012948;28;20047;-73
2023/05/22 02:10:30;;;;;;;;;;;;;;;;;;5010276;28;20058;-73
2023/05/22 02:12:56;;;;;;;;;;;;;;;;;;5021539;28;20000;-74
2023/05/22 02:15:22;;;;;;;;;;;;;;;;;;5026127;28;20426;-74
2023/05/22 02:17:48;;;;;;;;;;;;;;;;;;5007931;28;19920;-74
2023/05/22 02:20:15;;;;;;;;;;;;;;;;;;5009474;28;20421;-73
2023/05/22 02:22:45;;;;;;;;;;;;;;;;;;5025242;28;20432;-74
2023/05/22 02:25:13;;;;;;;;;;;;;;;;;;5010417;28;20538;-73
2023/05/22 02:27:40;;;;;;;;;;;;;;;;;;5024644;28;20063;-73
2023/05/22 02:30:06;;;;;;;;;;;;;;;;;;5008302;28;20079;-73
2023/05/22 02:32:32;;;;;;;;;;;;;;;;;;5011055;28;20350;-73
2023/05/22 02:34:58;;;;;;;;;;;;;;;;;;5004923;28;19921;-74
2023/05/22 02:37:24;;;;;;;;;;;;;;;;;;5008937;28;19917;-73
2023/05/22 02:39:50;;;;;;;;;;;;;;;;;;5006521;28;19936;-73
2023/05/22 02:42:16;;;;;;;;;;;;;;;;;;5020124;28;20295;-73
2023/05/22 02:44:43;;;;;;;;;;;;;;;;;;5002004;28;20043;-73
2023/05/22 02:47:09;;;;;;;;;;;;;;;;;;5006811;28;19921;-73
2023/05/22 02:49:35;;;;;;;;;;;;;;;;;;5010844;28;19913;-73
2023/05/22 02:52:01;;;;;;;;;;;;;;;;;;5025457;28;19921;-73
2023/05/22 02:54:27;;;;;;;;;;;;;;;;;;5025482;28;20384;-74
2023/05/22 02:56:53;;;;;;;;;;;;;;;;;;5008339;28;20004;-73
2023/05/22 02:59:19;;;;;;;;;;;;;;;;;;5008695;28;19927;-74
2023/05/22 03:01:47;;;;;;;;;;;;;;;;;;5026631;28;20012;-74
2023/05/22 03:04:13;;;;;;;;;;;;;;;;;;5008998;28;19952;-74
2023/05/22 03:06:40;;;;;;;;;;;;;;;;;;5006438;28;19920;-74
2023/05/22 03:09:07;;;;;;;;;;;;;;;;;;5026968;28;19913;-73
2023/05/22 03:11:33;;;;;;;;;;;;;;;;;;5006966;28;19967;-73
2023/05/22 03:13:59;;;;;;;;;;;;;;;;;;5006472;28;19929;-73
2023/05/22 03:16:25;;;;;;;;;;;;;;;;;;5025913;28;19964;-74
2023/05/22 03:18:53;;;;;;;;;;;;;;;;;;5025525;28;19956;-74
2023/05/22 03:21:19;;;;;;;;;;;;;;;;;;5010408;28;19919;-73
2023/05/22 03:23:45;;;;;;;;;;;;;;;;;;5010707;28;19925;-73
2023/05/22 03:26:11;;;;;;;;;;;;;;;;;;5013530;28;20378;-74
2023/05/22 03:28:38;;;;;;;;;;;;;;;;;;5006926;28;20012;-73
2023/05/22 03:31:08;;;;;;;;;;;;;;;;;;5031683;28;20003;-73
2023/05/22 03:33:40;;;;;;;;;;;;;;;;;;5046558;28;19913;-73
2023/05/22 03:36:08;;;;;;;;;;;;;;;;;;5031668;28;20015;-73
2023/05/22 03:38:34;;;;;;;;;;;;;;;;;;5047263;28;19967;-73
2023/05/22 03:41:00;;;;;;;;;;;;;;;;;;5014336;28;19980;-73
2023/05/22 03:43:26;;;;;;;;;;;;;;;;;;5047201;28;19917;-73
2023/05/22 03:45:52;;;;;;;;;;;;;;;;;;5010230;28;22108;-74
2023/05/22 03:48:19;;;;;;;;;;;;;;;;;;5019949;28;19912;-74
2023/05/22 03:50:44;;;;;;;;;;;;;;;;;;4996409;28;20378;-73
2023/05/22 03:53:11;;;;;;;;;;;;;;;;;;5019477;28;19917;-73
2023/05/22 03:55:37;;;;;;;;;;;;;;;;;;5027251;28;19923;-73
2023/05/22 03:58:03;;;;;;;;;;;;;;;;;;5040760;28;19917;-73
2023/05/22 04:00:30;;;;;;;;;;;;;;;;;;5021644;28;19913;-72
2023/05/22 04:02:58;;;;;;;;;;;;;;;;;;5018244;28;19932;-73
2023/05/22 04:05:24;;;;;;;;;;;;;;;;;;5030904;28;19921;-72
2023/05/22 04:07:50;;;;;;;;;;;;;;;;;;5030456;28;19960;-73
2023/05/22 04:10:16;;;;;;;;;;;;;;;;;;5012373;28;19960;-72
2023/05/22 04:12:42;;;;;;;;;;;;;;;;;;5026967;28;19932;-73
2023/05/22 04:15:08;;;;;;;;;;;;;;;;;;5013023;28;20011;-73
2023/05/22 04:17:34;;;;;;;;;;;;;;;;;;5009045;28;19913;-72
2023/05/22 04:20:00;;;;;;;;;;;;;;;;;;5008740;28;19921;-72
2023/05/22 04:22:26;;;;;;;;;;;;;;;;;;5027655;28;19913;-72
2023/05/22 04:24:52;;;;;;;;;;;;;;;;;;5029683;28;20039;-72
2023/05/22 04:27:21;;;;;;;;;;;;;;;;;;5009336;28;20047;-73
2023/05/22 04:29:49;;;;;;;;;;;;;;;;;;5024797;28;20012;-73
2023/05/22 04:32:17;;;;;;;;;;;;;;;;;;5027890;28;19920;-73
2023/05/22 04:34:43;;;;;;;;;;;;;;;;;;5029346;28;19986;-72
2023/05/22 04:37:10;;;;;;;;;;;;;;;;;;5031208;28;19913;-73
2023/05/22 04:39:36;;;;;;;;;;;;;;;;;;5029733;28;19919;-73
2023/05/22 04:42:04;;;;;;;;;;;;;;;;;;5011924;28;19970;-73
2023/05/22 04:44:33;;;;;;;;;;;;;;;;;;5011977;28;19921;-73
2023/05/22 04:46:59;;;;;;;;;;;;;;;;;;5027332;28;19913;-73
2023/05/22 04:49:25;;;;;;;;;;;;;;;;;;5010760;28;19917;-73
2023/05/22 04:51:52;;;;;;;;;;;;;;;;;;5014827;28;19919;-73
2023/05/22 04:54:18;;;;;;;;;;;;;;;;;;5011838;28;19967;-73
2023/05/22 04:56:44;;;;;;;;;;;;;;;;;;5007681;28;20369;-73
2023/05/22 04:59:15;;;;;;;;;;;;;;;;;;5025430;28;19917;-73
2023/05/22 05:01:44;;;;;;;;;;;;;;;;;;5013136;28;20015;-73
2023/05/22 05:04:10;;;;;;;;;;;;;;;;;;5009418;28;19953;-73
2023/05/22 05:06:36;;;;;;;;;;;;;;;;;;5027488;28;19925;-74
2023/05/22 05:09:02;;;;;;;;;;;;;;;;;;5011487;28;19917;-74
2023/05/22 05:11:28;;;;;;;;;;;;;;;;;;5008246;28;19913;-73
2023/05/22 05:13:54;;;;;;;;;;;;;;;;;;5009618;28;19925;-73
2023/05/22 05:16:22;;;;;;;;;;;;;;;;;;5029377;28;19924;-75
2023/05/22 05:18:48;;;;;;;;;;;;;;;;;;5025213;28;20420;-73
2023/05/22 05:21:14;;;;;;;;;;;;;;;;;;5009932;28;19913;-74
2023/05/22 05:23:40;;;;;;;;;;;;;;;;;;5027974;28;20030;-73
2023/05/22 05:26:06;;;;;;;;;;;;;;;;;;5004661;28;19952;-73
2023/05/22 05:28:32;;;;;;;;;;;;;;;;;;5010248;28;19948;-74
2023/05/22 05:30:59;;;;;;;;;;;;;;;;;;5007602;28;20286;-73
2023/05/22 05:33:42;;;;;;;;;;;;;;;;;;5008526;28;19926;-74
2023/05/22 05:36:15;;;;;;;;;;;;;;;;;;5023437;28;19921;-74
2023/05/22 05:38:41;;;;;;;;;;;;;;;;;;5006527;28;19913;-74
2023/05/22 05:41:08;;;;;;;;;;;;;;;;;;5024429;28;20313;-75
2023/05/22 05:43:35;;;;;;;;;;;;;;;;;;5009539;28;19921;-74
2023/05/22 05:46:04;;;;;;;;;;;;;;;;;;5010772;28;19928;-75
2023/05/22 05:48:31;;;;;;;;;;;;;;;;;;5027614;28;20379;-74
2023/05/22 05:50:57;;;;;;;;;;;;;;;;;;5024088;28;19917;-74
2023/05/22 05:53:24;;;;;;;;;;;;;;;;;;5011168;28;19996;-74
2023/05/22 05:55:56;;;;;;;;;;;;;;;;;;5010916;28;20020;-74
2023/05/22 05:58:22;;;;;;;;;;;;;;;;;;5005081;28;20024;-74
2023/05/22 06:01:07;;;;;;;;;;;;;;;;;;5025211;28;19960;-74
2023/05/22 06:03:35;;;;;;;;;;;;;;;;;;5007982;28;20349;-74
2023/05/22 06:06:14;;;;;;;;;;;;;;;;;;5013598;28;20509;-72
2023/05/22 06:09:04;;;;;;;;;;;;;;;;;;5007780;28;20002;-72
2023/05/22 06:11:32;;;;;;;;;;;;;;;;;;5012538;28;19921;-72
2023/05/22 06:13:58;;;;;;;;;;;;;;;;;;5025325;28;19953;-71
2023/05/22 06:16:24;;;;;;;;;;;;;;;;;;5011310;28;19924;-71
2023/05/22 06:18:51;;;;;;;;;;;;;;;;;;5011790;28;19936;-72
2023/05/22 06:21:19;;;;;;;;;;;;;;;;;;5026728;28;19967;-72
2023/05/22 06:23:46;;;;;;;;;;;;;;;;;;5041950;28;20274;-72
2023/05/22 06:26:12;;;;;;;;;;;;;;;;;;5011055;28;19921;-72
2023/05/22 06:28:40;;;;;;;;;;;;;;;;;;4998975;28;19921;-72
2023/05/22 06:31:08;;;;;;;;;;;;;;;;;;5004236;28;19917;-71
2023/05/22 06:33:35;;;;;;;;;;;;;;;;;;5010775;28;19924;-71
2023/05/22 06:36:02;;;;;;;;;;;;;;;;;;5007321;28;19983;-71
2023/05/22 06:38:28;;;;;;;;;;;;;;;;;;5011236;28;19913;-71
2023/05/22 06:40:54;;;;;;;;;;;;;;;;;;5009369;28;19917;-71
2023/05/22 06:43:23;;;;;;;;;;;;;;;;;;4992008;28;19990;-80
2023/05/22 06:46:18;;;;;;;;;;;;;;;;;;5006968;28;19913;-79
2023/05/22 06:48:53;;;;;;;;;;;;;;;;;;4993635;28;19928;-77
2023/05/22 06:51:23;;;;;;;;;;;;;;;;;;4994283;28;20321;-81
2023/05/22 06:53:52;;;;;;;;;;;;;;;;;;5008480;28;20011;-77
2023/05/22 06:56:24;;;;;;;;;;;;;;;;;;5008564;28;20029;-82
2023/05/22 06:58:59;;;;;;;;;;;;;;;;;;5006251;28;20444;-78
2023/05/22 07:01:43;;;;;;;;;;;;;;;;;;5025265;28;20004;-78
2023/05/22 07:04:14;;;;;;;;;;;;;;;;;;5024216;28;19933;-80
2023/05/22 07:06:54;;;;;;;;;;;;;;;;;;5008767;28;19917;-79
2023/05/22 07:09:20;;;;;;;;;;;;;;;;;;5008291;28;20505;-82
2023/05/22 07:11:48;;;;;;;;;;;;;;;;;;5009307;28;19941;-81
2023/05/22 07:14:15;;;;;;;;;;;;;;;;;;4991631;28;20004;-79
2023/05/22 07:16:42;;;;;;;;;;;;;;;;;;4990197;28;19961;-80
2023/05/22 07:19:09;;;;;;;;;;;;;;;;;;4988586;28;19928;-81
2023/05/22 07:21:35;;;;;;;;;;;;;;;;;;4988905;28;19917;-80
2023/05/22 07:24:07;;;;;;;;;;;;;;;;;;4989735;28;19925;-81
2023/05/22 07:26:34;;;;;;;;;;;;;;;;;;4988861;28;20025;-79
2023/05/22 07:29:05;;;;;;;;;;;;;;;;;;4986336;28;19913;-79
2023/05/22 07:31:33;;;;;;;;;;;;;;;;;;4991119;28;19914;-79
2023/05/22 07:33:59;;;;;;;;;;;;;;;;;;5000019;28;19921;-80
2023/05/22 07:36:26;;;;;;;;;;;;;;;;;;5023174;28;19913;-78
2023/05/22 07:38:52;;;;;;;;;;;;;;;;;;5007891;28;19922;-78
2023/05/22 07:41:18;;;;;;;;;;;;;;;;;;4976678;28;20387;-79
2023/05/22 07:43:44;;;;;;;;;;;;;;;;;;4989470;28;20008;-78
2023/05/22 07:46:14;;;;;;;;;;;;;;;;;;4985388;28;20008;-78
2023/05/22 07:48:53;;;;;;;;;;;;;;;;;;4989768;28;20112;-78
2023/05/22 07:51:19;;;;;;;;;;;;;;;;;;4989773;28;19924;-82
2023/05/22 07:53:48;;;;;;;;;;;;;;;;;;4987272;28;19928;-78
2023/05/22 07:56:16;;;;;;;;;;;;;;;;;;4991201;28;19971;-80
2023/05/22 07:58:43;;;;;;;;;;;;;;;;;;4987326;28;19921;-79
2023/05/22 08:01:09;;;;;;;;;;;;;;;;;;5006011;28;20298;-79
2023/05/22 08:03:35;;;;;;;;;;;;;;;;;;5004319;28;19922;-79
2023/05/22 08:06:01;;;;;;;;;;;;;;;;;;5006342;28;19917;-80
2023/05/22 08:08:27;;;;;;;;;;;;;;;;;;5008109;28;20008;-79
2023/05/22 08:10:53;;;;;;;;;;;;;;;;;;5009983;28;20302;-78
2023/05/22 08:13:19;;;;;;;;;;;;;;;;;;4977176;28;19921;-78
2023/05/22 08:15:45;;;;;;;;;;;;;;;;;;5011073;28;19917;-76
2023/05/22 08:18:11;;;;;;;;;;;;;;;;;;4990914;28;20040;-76
2023/05/22 08:20:37;;;;;;;;;;;;;;;;;;4980485;28;19925;-75
2023/05/22 08:23:03;;;;;;;;;;;;;;;;;;4998051;28;19925;-75
2023/05/22 08:25:29;;;;;;;;;;;;;;;;;;5004503;28;20007;-76
2023/05/22 08:27:55;;;;;;;;;;;;;;;;;;4980607;28;19959;-76
2023/05/22 08:30:21;;;;;;;;;;;;;;;;;;5017864;28;20011;-75
2023/05/22 08:32:47;;;;;;;;;;;;;;;;;;5024118;28;20094;-76
2023/05/22 08:35:13;;;;;;;;;;;;;;;;;;4996253;28;19949;-76
2023/05/22 08:37:40;;;;;;;;;;;;;;;;;;5013045;28;19976;-75
2023/05/22 08:40:06;;;;;;;;;;;;;;;;;;5018867;28;19916;-75
2023/05/22 08:42:32;;;;;;;;;;;;;;;;;;5010077;28;20004;-76
2023/05/22 08:44:59;;;;;;;;;;;;;;;;;;5011112;28;19921;-76
2023/05/22 08:47:25;;;;;;;;;;;;;;;;;;4993360;28;19964;-76
2023/05/22 08:49:51;;;;;;;;;;;;;;;;;;4992169;28;19917;-76
2023/05/22 08:52:17;;;;;;;;;;;;;;;;;;5007399;28;20270;-75
2023/05/22 08:54:43;;;;;;;;;;;;;;;;;;5007633;28;20016;-75
2023/05/22 08:57:09;;;;;;;;;;;;;;;;;;5007319;28;19923;-74
2023/05/22 08:59:36;;;;;;;;;;;;;;;;;;5007698;28;19921;-75
2023/05/22 09:02:02;;;;;;;;;;;;;;;;;;5003114;28;19914;-75
2023/05/22 09:04:27;;;;;;;;;;;;;;;;;;5009707;28;19979;-75
2023/05/22 09:06:54;;;;;;;;;;;;;;;;;;5008941;28;19921;-75
2023/05/22 09:09:20;;;;;;;;;;;;;;;;;;5006692;28;19920;-75
2023/05/22 09:11:46;;;;;;;;;;;;;;;;;;4992563;28;19929;-75
2023/05/22 09:14:12;;;;;;;;;;;;;;;;;;4991317;28;19976;-76
2023/05/22 09:16:38;;;;;;;;;;;;;;;;;;5008566;28;19975;-76
2023/05/22 09:19:04;;;;;;;;;;;;;;;;;;4990544;28;19936;-76
2023/05/22 09:21:30;;;;;;;;;;;;;;;;;;5009210;28;19914;-76
2023/05/22 09:23:56;;;;;;;;;;;;;;;;;;5001382;28;19918;-76
2023/05/22 09:26:22;;;;;;;;;;;;;;;;;;5006838;28;19968;-76
2023/05/22 09:28:48;;;;;;;;;;;;;;;;;;5008383;28;19917;-76
2023/05/22 09:31:14;;;;;;;;;;;;;;;;;;4989909;28;19921;-75
2023/05/22 09:33:40;;;;;;;;;;;;;;;;;;5009331;28;19926;-76
2023/05/22 09:36:06;;;;;;;;;;;;;;;;;;5007667;28;20330;-76
2023/05/22 09:38:32;;;;;;;;;;;;;;;;;;5009760;28;19918;-75
2023/05/22 09:40:58;;;;;;;;;;;;;;;;;;4996264;28;20487;-74
2023/05/22 09:43:24;;;;;;;;;;;;;;;;;;5010148;28;19928;-76
2023/05/22 09:45:50;;;;;;;;;;;;;;;;;;5004754;28;19918;-75
2023/05/22 09:48:17;;;;;;;;;;;;;;;;;;5006554;28;19929;-76
2023/05/22 09:50:43;;;;;;;;;;;;;;;;;;5010247;28;19918;-75
2023/05/22 09:53:09;;;;;;;;;;;;;;;;;;5026420;28;19971;-76
2023/05/22 09:55:35;;;;;;;;;;;;;;;;;;5031801;28;19925;-74
2023/05/22 09:58:03;;;;;;;;;;;;;;;;;;5017058;28;19998;-74
2023/05/22 10:00:29;;;;;;;;;;;;;;;;;;5007961;28;19922;-75
2023/05/22 10:02:55;;;;;;;;;;;;;;;;;;4992834;28;19913;-74
2023/05/22 10:05:21;;;;;;;;;;;;;;;;;;5006452;28;19924;-79
2023/05/22 10:07:48;;;;;;;;;;;;;;;;;;5006724;28;20000;-75
2023/05/22 10:10:14;;;;;;;;;;;;;;;;;;5021908;28;19981;-75
2023/05/22 10:12:42;;;;;;;;;;;;;;;;;;4994450;28;21595;-74
2023/05/22 10:15:08;;;;;;;;;;;;;;;;;;5026459;28;20378;-74
2023/05/22 10:17:34;;;;;;;;;;;;;;;;;;5010051;28;19921;-74
2023/05/22 10:20:00;;;;;;;;;;;;;;;;;;5006635;28;20329;-75
2023/05/22 10:22:26;;;;;;;;;;;;;;;;;;5020301;28;19913;-74
2023/05/22 10:24:52;;;;;;;;;;;;;;;;;;5012499;28;19913;-74
2023/05/22 10:27:18;;;;;;;;;;;;;;;;;;5018264;28;19983;-74
2023/05/22 10:29:44;;;;;;;;;;;;;;;;;;5026271;28;20370;-74
2023/05/22 10:32:12;;;;;;;;;;;;;;;;;;5025532;28;19913;-74
2023/05/22 10:34:45;;;;;;;;;;;;;;;;;;5007920;28;19924;-74
2023/05/22 10:37:11;;;;;;;;;;;;;;;;;;5026030;28;19983;-75
2023/05/22 10:39:38;;;;;;;;;;;;;;;;;;5026512;28;20051;-74
2023/05/22 10:42:04;;;;;;;;;;;;;;;;;;5026694;28;19922;-73
2023/05/22 10:44:30;;;;;;;;;;;;;;;;;;5014911;28;20339;-74
2023/05/22 10:46:56;;;;;;;;;;;;;;;;;;5025101;28;19960;-73
2023/05/22 10:49:22;;;;;;;;;;;;;;;;;;5022555;28;19913;-75
2023/05/22 10:51:48;;;;;;;;;;;;;;;;;;5026251;28;19939;-72
2023/05/22 10:54:14;;;;;;;;;;;;;;;;;;5003531;28;20020;-74
2023/05/22 10:56:41;;;;;;;;;;;;;;;;;;5026448;28;19919;-74
2023/05/22 10:59:07;;;;;;;;;;;;;;;;;;5040844;28;20346;-75
2023/05/22 11:01:36;;;;;;;;;;;;;;;;;;5025544;28;19937;-74
2023/05/22 11:04:10;;;;;;;;;;;;;;;;;;5009503;28;19959;-74
2023/05/22 11:06:37;;;;;;;;;;;;;;;;;;5008066;28;19921;-74
2023/05/22 11:09:03;;;;;;;;;;;;;;;;;;5027081;28;20004;-74
2023/05/22 11:11:29;;;;;;;;;;;;;;;;;;5005048;28;20321;-74
2023/05/22 11:13:55;;;;;;;;;;;;;;;;;;5021068;28;20016;-74
2023/05/22 11:16:21;;;;;;;;;;;;;;;;;;5024028;28;19921;-74
2023/05/22 11:18:47;;;;;;;;;;;;;;;;;;5011390;28;19987;-74
2023/05/22 11:21:13;;;;;;;;;;;;;;;;;;5005134;28;20388;-75
2023/05/22 11:23:39;;;;;;;;;;;;;;;;;;5023657;28;19936;-75
2023/05/22 11:26:06;;;;;;;;;;;;;;;;;;5016929;28;19913;-74
2023/05/22 11:28:32;;;;;;;;;;;;;;;;;;5022460;28;20981;-74
2023/05/22 11:30:58;;;;;;;;;;;;;;;;;;5022366;28;19913;-74
2023/05/22 11:33:24;;;;;;;;;;;;;;;;;;5002413;28;19914;-79
2023/05/22 11:35:50;;;;;;;;;;;;;;;;;;5020319;28;20016;-74
2023/05/22 11:38:16;;;;;;;;;;;;;;;;;;5024218;28;20069;-74
2023/05/22 11:40:43;;;;;;;;;;;;;;;;;;5025183;28;19917;-75
2023/05/22 11:43:09;;;;;;;;;;;;;;;;;;5011753;28;20264;-75
2023/05/22 11:45:35;;;;;;;;;;;;;;;;;;5026700;28;19913;-74
2023/05/22 11:48:01;;;;;;;;;;;;;;;;;;5029267;28;19913;-74
2023/05/22 11:50:27;;;;;;;;;;;;;;;;;;5029470;28;19913;-75
2023/05/22 11:52:55;;;;;;;;;;;;;;;;;;5044228;28;19972;-75
2023/05/22 11:55:21;;;;;;;;;;;;;;;;;;5046744;28;20453;-74
2023/05/22 11:57:47;;;;;;;;;;;;;;;;;;5031524;28;19921;-75
2023/05/22 12:00:13;;;;;;;;;;;;;;;;;;5018237;28;19925;-75
2023/05/22 12:02:39;;;;;;;;;;;;;;;;;;5041615;28;19913;-74
2023/05/22 12:05:05;;;;;;;;;;;;;;;;;;5028210;28;19913;-75
2023/05/22 12:07:31;;;;;;;;;;;;;;;;;;5029864;28;19913;-75
2023/05/22 12:09:57;;;;;;;;;;;;;;;;;;5027699;28;19921;-75
2023/05/22 12:12:23;;;;;;;;;;;;;;;;;;5028979;28;19924;-75
2023/05/22 12:14:49;;;;;;;;;;;;;;;;;;5007539;28;19921;-73
2023/05/22 12:17:15;;;;;;;;;;;;;;;;;;5030595;28;19917;-74
2023/05/22 12:19:41;;;;;;;;;;;;;;;;;;5035899;28;20007;-73
2023/05/22 12:22:07;;;;;;;;;;;;;;;;;;5023479;28;19963;-74
2023/05/22 12:24:34;;;;;;;;;;;;;;;;;;5028332;28;20305;-74
2023/05/22 12:27:00;;;;;;;;;;;;;;;;;;5007416;28;19924;-74
2023/05/22 12:29:26;;;;;;;;;;;;;;;;;;5028718;28;19917;-74
2023/05/22 12:31:52;;;;;;;;;;;;;;;;;;5005290;28;20998;-75
2023/05/22 12:34:18;;;;;;;;;;;;;;;;;;5026176;28;19917;-74
2023/05/22 12:36:44;;;;;;;;;;;;;;;;;;5029414;28;19923;-74
2023/05/22 12:39:10;;;;;;;;;;;;;;;;;;5027965;28;19917;-73
2023/05/22 12:41:36;;;;;;;;;;;;;;;;;;5009999;28;19920;-74
2023/05/22 12:44:03;;;;;;;;;;;;;;;;;;5027893;28;19913;-73
2023/05/22 12:46:30;;;;;;;;;;;;;;;;;;5029438;28;20356;-73
2023/05/22 12:48:56;;;;;;;;;;;;;;;;;;5012568;28;19920;-72
2023/05/22 12:51:25;;;;;;;;;;;;;;;;;;5011734;28;19913;-76
2023/05/22 12:53:51;;;;;;;;;;;;;;;;;;5030569;28;19921;-72
2023/05/22 12:56:17;;;;;;;;;;;;;;;;;;5030271;28;20367;-74
2023/05/22 12:58:43;;;;;;;;;;;;;;;;;;5029396;28;19917;-74
2023/05/22 13:01:09;;;;;;;;;;;;;;;;;;5026686;28;20468;-74
2023/05/22 13:03:35;;;;;;;;;;;;;;;;;;5037584;28;19913;-74
2023/05/22 13:06:01;;;;;;;;;;;;;;;;;;5027481;28;19920;-74
2023/05/22 13:08:27;;;;;;;;;;;;;;;;;;5026918;28;20003;-74
2023/05/22 13:10:53;;;;;;;;;;;;;;;;;;5008223;28;20489;-74
2023/05/22 13:13:19;;;;;;;;;;;;;;;;;;5027286;28;19917;-74
2023/05/22 13:15:45;;;;;;;;;;;;;;;;;;5028476;28;19925;-74
2023/05/22 13:18:11;;;;;;;;;;;;;;;;;;5028350;28;19920;-74
2023/05/22 13:20:37;;;;;;;;;;;;;;;;;;5028170;28;20401;-73
2023/05/22 13:23:03;;;;;;;;;;;;;;;;;;5028991;28;20330;-74
2023/05/22 13:25:30;;;;;;;;;;;;;;;;;;5030670;28;19913;-73
2023/05/22 13:27:56;;;;;;;;;;;;;;;;;;5029753;28;19914;-74
2023/05/22 13:30:22;;;;;;;;;;;;;;;;;;5031627;28;19967;-73
2023/05/22 13:32:48;;;;;;;;;;;;;;;;;;5011749;28;20387;-75
2023/05/22 13:35:14;;;;;;;;;;;;;;;;;;5012206;28;19925;-76
2023/05/22 13:37:40;;;;;;;;;;;;;;;;;;5010360;28;19939;-77
2023/05/22 13:40:06;;;;;;;;;;;;;;;;;;5028178;28;19960;-76
2023/05/22 13:42:32;;;;;;;;;;;;;;;;;;5011059;28;19959;-77
2023/05/22 13:44:58;;;;;;;;;;;;;;;;;;5028391;28;20436;-76
2023/05/22 13:47:24;;;;;;;;;;;;;;;;;;5031129;28;19917;-76
2023/05/22 13:49:50;;;;;;;;;;;;;;;;;;5030733;28;20374;-76
2023/05/22 13:52:16;;;;;;;;;;;;;;;;;;5007228;28;19913;-76
2023/05/22 13:54:43;;;;;;;;;;;;;;;;;;5009621;28;19932;-78
2023/05/22 13:57:09;;;;;;;;;;;;;;;;;;5026955;28;19920;-77
2023/05/22 13:59:35;;;;;;;;;;;;;;;;;;5009942;28;19924;-77
2023/05/22 14:02:01;;;;;;;;;;;;;;;;;;5027419;28;19913;-78
2023/05/22 14:04:27;;;;;;;;;;;;;;;;;;5026888;28;19917;-76
2023/05/22 14:06:53;;;;;;;;;;;;;;;;;;5026856;28;19967;-77
2023/05/22 14:09:19;;;;;;;;;;;;;;;;;;5023701;28;20313;-76
2023/05/22 14:11:45;;;;;;;;;;;;;;;;;;5008532;28;19921;-76
2023/05/22 14:14:11;;;;;;;;;;;;;;;;;;5008922;28;20047;-76
2023/05/22 14:16:37;;;;;;;;;;;;;;;;;;5019787;28;19917;-76
2023/05/22 14:19:03;;;;;;;;;;;;;;;;;;5026238;28;19917;-75
2023/05/22 14:21:29;;;;;;;;;;;;;;;;;;5024841;28;20004;-73
2023/05/22 14:23:56;;;;;;;;;;;;;;;;;;5028089;28;19920;-74
2023/05/22 14:26:23;;;;;;;;;;;;;;;;;;5029136;28;19932;-74
2023/05/22 14:28:49;;;;;;;;;;;;;;;;;;5022971;28;19931;-75
2023/05/22 14:31:15;;;;;;;;;;;;;;;;;;5025944;28;19920;-74
2023/05/22 14:33:41;;;;;;;;;;;;;;;;;;5020139;28;20367;-74
2023/05/22 14:36:07;;;;;;;;;;;;;;;;;;5029341;28;19924;-74
2023/05/22 14:38:33;;;;;;;;;;;;;;;;;;5014050;28;19936;-75
2023/05/22 14:40:59;;;;;;;;;;;;;;;;;;5013932;28;19913;-74
2023/05/22 14:43:25;;;;;;;;;;;;;;;;;;5029673;28;20032;-73
2023/05/22 14:45:51;;;;;;;;;;;;;;;;;;5029127;28;19913;-74
2023/05/22 14:48:17;;;;;;;;;;;;;;;;;;5031230;28;20437;-74
2023/05/22 14:50:43;;;;;;;;;;;;;;;;;;5012605;28;20283;-74
2023/05/22 14:53:10;;;;;;;;;;;;;;;;;;5029961;28;20008;-74
2023/05/22 14:55:36;;;;;;;;;;;;;;;;;;5033119;28;19952;-73
2023/05/22 14:58:02;;;;;;;;;;;;;;;;;;5012950;28;20607;-74
2023/05/22 15:00:28;;;;;;;;;;;;;;;;;;5027545;28;19951;-73
2023/05/22 15:02:54;;;;;;;;;;;;;;;;;;5007807;28;19923;-73
2023/05/22 15:05:20;;;;;;;;;;;;;;;;;;5023863;28;19962;-73
2023/05/22 15:07:46;;;;;;;;;;;;;;;;;;5023381;28;19951;-72
2023/05/22 15:10:12;;;;;;;;;;;;;;;;;;5008238;28;19913;-74
2023/05/22 15:12:38;;;;;;;;;;;;;;;;;;5009008;28;19918;-73
2023/05/22 15:15:04;;;;;;;;;;;;;;;;;;4993247;28;19924;-72
2023/05/22 15:17:30;;;;;;;;;;;;;;;;;;5034555;28;19921;-72
2023/05/22 15:19:56;;;;;;;;;;;;;;;;;;5030834;28;20381;-73
2023/05/22 15:22:22;;;;;;;;;;;;;;;;;;5016088;28;19924;-73
2023/05/22 15:24:48;;;;;;;;;;;;;;;;;;5015187;28;19929;-73
2023/05/22 15:27:16;;;;;;;;;;;;;;;;;;5018652;28;19921;-73
2023/05/22 15:29:42;;;;;;;;;;;;;;;;;;5035834;28;20004;-72
2023/05/22 15:32:08;;;;;;;;;;;;;;;;;;5032526;28;20396;-72
2023/05/22 15:34:34;;;;;;;;;;;;;;;;;;5017132;28;19943;-73
2023/05/22 15:37:00;;;;;;;;;;;;;;;;;;5019094;28;19913;-72
2023/05/22 15:39:26;;;;;;;;;;;;;;;;;;4997771;28;19929;-72
2023/05/22 15:41:52;;;;;;;;;;;;;;;;;;5032014;28;19917;-74
2023/05/22 15:44:18;;;;;;;;;;;;;;;;;;5014997;28;19925;-73
2023/05/22 15:46:44;;;;;;;;;;;;;;;;;;5033791;28;19979;-73
2023/05/22 15:49:10;;;;;;;;;;;;;;;;;;5014655;28;20326;-73
2023/05/22 15:51:36;;;;;;;;;;;;;;;;;;5012826;28;19917;-73
2023/05/22 15:54:02;;;;;;;;;;;;;;;;;;5027802;28;20004;-72
2023/05/22 15:56:28;;;;;;;;;;;;;;;;;;5026784;28;19928;-72
2023/05/22 15:58:55;;;;;;;;;;;;;;;;;;5037438;28;19916;-72
2023/05/22 16:01:21;;;;;;;;;;;;;;;;;;5015626;28;19913;-72
2023/05/22 16:03:49;;;;;;;;;;;;;;;;;;5019353;28;19917;-73
2023/05/22 16:06:15;;;;;;;;;;;;;;;;;;5035781;28;19928;-71
2023/05/22 16:08:41;;;;;;;;;;;;;;;;;;5016401;28;19963;-73
2023/05/22 16:11:07;;;;;;;;;;;;;;;;;;4998010;28;19971;-72
2023/05/22 16:13:33;;;;;;;;;;;;;;;;;;5001243;28;19928;-73
2023/05/22 16:16:00;;;;;;;;;;;;;;;;;;5031593;28;19921;-71
2023/05/22 16:18:26;;;;;;;;;;;;;;;;;;5032473;28;19913;-74
2023/05/22 16:20:52;;;;;;;;;;;;;;;;;;5030147;28;19917;-72
2023/05/22 16:23:18;;;;;;;;;;;;;;;;;;5032424;28;20345;-72
2023/05/22 16:25:44;;;;;;;;;;;;;;;;;;5028608;28;19920;-72
2023/05/22 16:28:11;;;;;;;;;;;;;;;;;;5030962;28;19925;-73
2023/05/22 16:30:38;;;;;;;;;;;;;;;;;;5028324;28;19967;-73
2023/05/22 16:33:04;;;;;;;;;;;;;;;;;;5029044;28;19917;-73
2023/05/22 16:35:30;;;;;;;;;;;;;;;;;;5011943;28;19932;-72
2023/05/22 16:37:56;;;;;;;;;;;;;;;;;;5015712;28;19917;-73
2023/05/22 16:40:22;;;;;;;;;;;;;;;;;;5014941;28;19924;-72
2023/05/22 16:42:50;;;;;;;;;;;;;;;;;;5032243;28;19920;-72